Brownhelm, Ohio
Current Conditions -  °F | °C
As of 6:53 AM on Thursday 29 Jan 2015 (Local Time) from KLPR Reporting Station
Overcast Overcast  
Wind Chill: 18°   Ceiling: 6000
Heat Index: 30°   Visibility: 10mi
Dew Point: 19°   Wind: 20mph
Humidity: 64%   Direction: 170°S
Pressure: 29.89"   Gusts: 29mph
Location:  41.3705°N, 82.2583°W
Report Text: KLPR 291153Z AUTO 17017G25KT 10SM OVC060 M01/M07 A2989 RMK AO2 SLP131 T10111072 11011 21044 56047 TSNO
Loading
Personal Weather Stations






























Interactive Weather Map New forecast layout! Learn more

10-Day Weather Forecast

Advertisements
Track Severe Weather on mobile